createdAt,value
2022-07-29T00:01:19.942Z,100117.44
2022-07-29T00:03:48.299Z,100108.72
2022-07-29T00:06:16.901Z,100107.00
2022-07-29T00:08:44.822Z,100106.63
2022-07-29T00:11:12.634Z,100108.06
2022-07-29T00:13:40.614Z,100109.94
2022-07-29T00:16:08.543Z,100118.09
2022-07-29T00:18:36.339Z,100117.25
2022-07-29T00:21:04.117Z,100113.00
2022-07-29T00:23:36.455Z,100113.28
2022-07-29T00:26:04.908Z,100109.16
2022-07-29T00:28:32.822Z,100110.34
2022-07-29T00:31:01.622Z,100098.03
2022-07-29T00:33:30.003Z,100100.78
2022-07-29T00:35:57.770Z,100098.22
2022-07-29T00:38:25.549Z,100104.63
2022-07-29T00:40:53.472Z,100094.06
2022-07-29T00:43:22.166Z,100094.38
2022-07-29T00:45:49.871Z,100085.66
2022-07-29T00:48:17.638Z,100079.53
2022-07-29T00:50:45.435Z,100070.13
2022-07-29T00:53:13.674Z,100069.56
2022-07-29T00:55:41.492Z,100075.31
2022-07-29T00:58:12.610Z,100076.59
2022-07-29T01:00:41.714Z,100076.34
2022-07-29T01:03:28.846Z,100054.63
2022-07-29T01:05:56.940Z,100073.09
2022-07-29T01:08:25.014Z,100081.25
2022-07-29T01:10:54.060Z,100075.06
2022-07-29T01:13:23.525Z,100080.69
2022-07-29T01:16:00.100Z,100078.81
2022-07-29T01:18:42.862Z,100076.38
2022-07-29T01:21:51.016Z,100071.72
2022-07-29T01:24:55.899Z,100079.16
2022-07-29T01:27:48.256Z,100077.31
2022-07-29T01:30:16.618Z,100076.03
2022-07-29T01:32:51.069Z,100076.75
2022-07-29T01:35:44.471Z,100082.19
2022-07-29T01:38:18.570Z,100083.34
2022-07-29T01:40:53.603Z,100071.47
2022-07-29T01:43:41.102Z,100076.91
2022-07-29T01:46:20.691Z,100071.94
2022-07-29T01:48:55.964Z,100070.34
2022-07-29T01:51:36.746Z,100065.06
2022-07-29T01:54:33.480Z,100070.81
2022-07-29T01:57:02.758Z,100058.38
2022-07-29T01:59:31.916Z,100065.38
2022-07-29T02:02:02.006Z,100061.78
2022-07-29T02:04:31.105Z,100066.94
2022-07-29T02:07:05.752Z,100066.94
2022-07-29T02:09:37.230Z,100067.91
2022-07-29T02:12:07.541Z,100067.06
2022-07-29T02:14:43.225Z,100074.25
2022-07-29T02:17:14.289Z,100072.66
2022-07-29T02:19:45.715Z,100071.97
2022-07-29T02:22:14.003Z,100071.72
2022-07-29T02:24:42.868Z,100077.91
2022-07-29T02:27:12.413Z,100071.16
2022-07-29T02:29:41.509Z,100069.59
2022-07-29T02:32:12.127Z,100070.16
2022-07-29T02:34:40.965Z,100076.47
2022-07-29T02:37:12.459Z,100083.03
2022-07-29T02:39:43.308Z,100076.34
2022-07-29T02:42:18.256Z,100083.22
2022-07-29T02:44:46.228Z,100081.25
2022-07-29T02:47:41.459Z,100072.69
2022-07-29T02:50:34.826Z,100080.13
2022-07-29T02:53:21.073Z,100078.69
2022-07-29T02:56:02.854Z,100082.84
2022-07-29T02:58:34.418Z,100074.28
2022-07-29T03:01:20.996Z,100074.44
2022-07-29T03:03:53.809Z,100085.84
2022-07-29T03:06:31.035Z,100083.56
2022-07-29T03:09:12.888Z,100079.56
2022-07-29T03:11:49.347Z,100071.00
2022-07-29T03:14:21.056Z,100078.13
2022-07-29T03:16:50.478Z,100082.13
2022-07-29T03:19:20.161Z,100083.84
2022-07-29T03:21:48.404Z,100078.13
2022-07-29T03:24:37.138Z,100081.97
2022-07-29T03:27:05.745Z,100083.66
2022-07-29T03:29:34.652Z,100077.09
2022-07-29T03:32:08.732Z,100078.38
2022-07-29T03:34:38.693Z,100084.09
2022-07-29T03:37:07.347Z,100078.50
2022-07-29T03:39:41.974Z,100081.22
2022-07-29T03:42:13.918Z,100085.22
2022-07-29T03:44:45.012Z,100093.72
2022-07-29T03:47:16.121Z,100090.88
2022-07-29T03:49:48.087Z,100080.00
2022-07-29T03:52:16.345Z,100093.66
2022-07-29T03:54:44.640Z,100093.97
2022-07-29T03:57:13.173Z,100094.81
2022-07-29T03:59:42.203Z,100091.06
2022-07-29T04:02:12.617Z,100093.78
2022-07-29T04:04:40.524Z,100099.59
2022-07-29T04:07:12.278Z,100102.47
2022-07-29T04:09:40.212Z,100087.88
2022-07-29T04:12:08.354Z,100105.44
2022-07-29T04:14:37.223Z,100098.44
2022-07-29T04:17:05.807Z,100097.56
2022-07-29T04:19:34.042Z,100101.16
2022-07-29T04:22:02.677Z,100091.44
2022-07-29T04:24:30.422Z,100104.59
2022-07-29T04:26:58.356Z,100102.59
2022-07-29T04:29:26.257Z,100106.63
2022-07-29T04:31:53.998Z,100110.03
2022-07-29T04:34:22.174Z,100096.63
2022-07-29T04:36:49.927Z,100099.19
2022-07-29T04:39:22.665Z,100108.91
2022-07-29T04:41:52.548Z,100111.34
2022-07-29T04:44:26.554Z,100116.06
2022-07-29T04:46:58.198Z,100113.34
2022-07-29T04:49:26.622Z,100111.03
2022-07-29T04:51:54.850Z,100118.03
2022-07-29T04:54:22.872Z,100121.44
2022-07-29T04:56:53.044Z,100129.28
2022-07-29T04:59:20.841Z,100122.88
2022-07-29T05:01:48.778Z,100126.56
2022-07-29T05:04:17.121Z,100132.84
2022-07-29T05:06:45.178Z,100129.00
2022-07-29T05:09:12.975Z,100126.31
2022-07-29T05:11:40.860Z,100127.16
2022-07-29T05:14:09.647Z,100136.47
2022-07-29T05:16:37.766Z,100136.94
2022-07-29T05:19:07.009Z,100138.63
2022-07-29T05:21:36.499Z,100139.50
2022-07-29T05:24:04.927Z,100132.81
2022-07-29T05:26:32.673Z,100128.09
2022-07-29T05:29:00.393Z,100129.69
2022-07-29T05:31:28.382Z,100143.00
2022-07-29T05:33:56.194Z,100147.88
2022-07-29T05:36:23.937Z,100138.47
2022-07-29T05:38:53.018Z,100144.75
2022-07-29T05:41:21.169Z,100146.78
2022-07-29T05:43:48.987Z,100149.34
2022-07-29T05:46:17.101Z,100157.66
2022-07-29T05:48:45.133Z,100154.38
2022-07-29T05:51:13.100Z,100158.97
2022-07-29T05:53:41.057Z,100162.09
2022-07-29T05:56:09.038Z,100155.69
2022-07-29T05:58:37.206Z,100157.97
2022-07-29T06:01:05.927Z,100157.75
2022-07-29T06:03:33.909Z,100166.44
2022-07-29T06:06:01.927Z,100181.19
2022-07-29T06:08:29.791Z,100165.31
2022-07-29T06:10:57.682Z,100174.03
2022-07-29T06:13:25.361Z,100185.75
2022-07-29T06:15:53.297Z,100177.28
2022-07-29T06:18:21.859Z,100172.69
2022-07-29T06:20:49.650Z,100182.28
2022-07-29T06:23:18.470Z,100177.38
2022-07-29T06:25:46.862Z,100180.50
2022-07-29T06:28:14.895Z,100190.28
2022-07-29T06:30:42.695Z,100182.06
2022-07-29T06:33:10.735Z,100186.56
2022-07-29T06:35:41.756Z,100190.63
2022-07-29T06:38:31.648Z,100187.69
2022-07-29T06:41:06.862Z,100191.22
2022-07-29T06:43:50.830Z,100197.66
2022-07-29T06:46:23.854Z,100184.13
2022-07-29T06:48:53.359Z,100186.47
2022-07-29T06:51:23.266Z,100203.59
2022-07-29T06:53:59.822Z,100185.75
2022-07-29T06:56:39.239Z,100184.91
2022-07-29T06:59:10.569Z,100197.06
2022-07-29T07:01:43.799Z,100199.31
2022-07-29T07:04:13.172Z,100195.94
2022-07-29T07:06:41.442Z,100188.69
2022-07-29T07:09:09.552Z,100201.38
2022-07-29T07:11:37.352Z,100212.69
2022-07-29T07:14:05.161Z,100199.41
2022-07-29T07:16:33.574Z,100199.28
2022-07-29T07:19:01.764Z,100203.91
2022-07-29T07:21:31.000Z,100205.03
2022-07-29T07:24:00.219Z,100214.97
2022-07-29T07:26:28.854Z,100210.88
2022-07-29T07:28:56.776Z,100205.75
2022-07-29T07:31:24.725Z,100202.69
2022-07-29T07:33:54.560Z,100207.16
2022-07-29T07:36:23.413Z,100209.09
2022-07-29T07:38:51.297Z,100209.19
2022-07-29T07:41:19.436Z,100206.34
2022-07-29T07:43:47.611Z,100215.78
2022-07-29T07:46:17.167Z,100210.88
2022-07-29T07:48:45.474Z,100217.16
2022-07-29T07:51:13.567Z,100217.38
2022-07-29T07:53:41.539Z,100209.50
2022-07-29T07:56:11.844Z,100210.34
2022-07-29T07:58:40.345Z,100218.72
2022-07-29T08:01:09.724Z,100220.75
2022-07-29T08:03:38.048Z,100206.94
2022-07-29T08:06:06.886Z,100212.91
2022-07-29T08:08:34.969Z,100204.22
2022-07-29T08:11:09.140Z,100213.47
2022-07-29T08:13:39.393Z,100212.44
2022-07-29T08:16:16.322Z,100213.28
2022-07-29T08:18:46.702Z,100215.00
2022-07-29T08:21:18.517Z,100214.28
2022-07-29T08:23:52.806Z,100221.50
2022-07-29T08:26:26.294Z,100223.53
2022-07-29T08:28:54.153Z,100221.97
2022-07-29T08:31:23.525Z,100222.31
2022-07-29T08:33:51.403Z,100217.88
2022-07-29T08:36:21.829Z,100223.69
2022-07-29T08:38:50.692Z,100227.63
2022-07-29T08:41:20.878Z,100216.50
2022-07-29T08:43:50.387Z,100225.94
2022-07-29T08:46:19.865Z,100227.78
2022-07-29T08:48:48.550Z,100233.44
2022-07-29T08:51:20.391Z,100228.28
2022-07-29T08:53:50.450Z,100238.88
2022-07-29T08:56:20.366Z,100232.72
2022-07-29T08:58:51.800Z,100228.59
2022-07-29T09:01:36.434Z,100223.44
2022-07-29T09:04:13.319Z,100227.50
2022-07-29T09:06:48.457Z,100234.69
2022-07-29T09:09:16.836Z,100227.00
2022-07-29T09:11:45.386Z,100231.28
2022-07-29T09:14:14.704Z,100230.06
2022-07-29T09:16:55.485Z,100236.53
2022-07-29T09:19:28.179Z,100244.56
2022-07-29T09:21:58.835Z,100237.03
2022-07-29T09:24:48.437Z,100228.81
2022-07-29T09:27:23.226Z,100231.69
2022-07-29T09:30:06.835Z,100229.63
2022-07-29T09:32:54.543Z,100233.03
2022-07-29T09:35:25.725Z,100236.66
2022-07-29T09:37:54.425Z,100228.25
2022-07-29T09:40:25.648Z,100239.03
2022-07-29T09:42:57.837Z,100228.59
2022-07-29T09:45:34.588Z,100224.78
2022-07-29T09:48:35.409Z,100211.25
2022-07-29T09:51:03.309Z,100223.25
2022-07-29T09:53:40.776Z,100211.38
2022-07-29T09:56:08.639Z,100216.00
2022-07-29T09:58:37.847Z,100220.75
2022-07-29T10:01:05.796Z,100224.22
2022-07-29T10:03:51.053Z,100219.22
2022-07-29T10:06:19.088Z,100221.78
2022-07-29T10:08:47.868Z,100210.63
2022-07-29T10:11:18.155Z,100210.59
2022-07-29T10:13:49.094Z,100211.44
2022-07-29T10:16:17.576Z,100209.66
2022-07-29T10:18:47.703Z,100206.13
2022-07-29T10:21:35.003Z,100208.63
2022-07-29T10:24:05.173Z,100198.16
2022-07-29T10:26:33.190Z,100194.19
2022-07-29T10:29:02.932Z,100201.88
2022-07-29T10:31:49.468Z,100189.69
2022-07-29T10:35:03.081Z,100194.97
2022-07-29T10:38:27.391Z,100193.09
2022-07-29T10:41:25.685Z,100185.19
2022-07-29T10:44:00.255Z,100182.78
2022-07-29T10:46:29.542Z,100188.38
2022-07-29T10:49:30.598Z,100188.22
2022-07-29T10:52:06.909Z,100187.88
2022-07-29T10:54:42.292Z,100180.53
2022-07-29T10:57:17.189Z,100185.59
2022-07-29T11:00:16.926Z,100181.06
2022-07-29T11:02:49.849Z,100179.50
2022-07-29T11:05:22.083Z,100176.66
2022-07-29T11:08:25.977Z,100173.00
2022-07-29T11:11:22.246Z,100175.34
2022-07-29T11:13:56.054Z,100177.72
2022-07-29T11:16:25.591Z,100168.44
2022-07-29T11:19:13.236Z,100165.63
2022-07-29T11:24:34.894Z,100157.84
2022-07-29T11:27:20.020Z,100162.41
2022-07-29T11:30:03.346Z,100158.91
2022-07-29T11:32:48.401Z,100154.53
2022-07-29T11:35:38.382Z,100154.38
2022-07-29T11:38:29.271Z,100154.53
2022-07-29T11:44:06.398Z,100163.94
2022-07-29T11:46:53.967Z,100164.50
2022-07-29T11:49:32.263Z,100168.09
2022-07-29T11:52:02.662Z,100155.56
2022-07-29T11:54:38.703Z,100151.22
2022-07-29T11:57:36.062Z,100163.34
2022-07-29T12:00:12.215Z,100155.38
2022-07-29T12:02:48.759Z,100158.03
2022-07-29T12:05:35.912Z,100151.31
2022-07-29T12:07:01.817Z,100167.34
2022-07-29T12:08:20.671Z,100155.06
2022-07-29T12:10:53.156Z,100157.94
2022-07-29T12:13:22.933Z,100157.34
2022-07-29T12:16:05.681Z,100166.44
2022-07-29T12:18:33.785Z,100159.25
2022-07-29T12:21:05.997Z,100164.81
2022-07-29T12:23:35.582Z,100162.94
2022-07-29T12:26:11.049Z,100168.44
2022-07-29T12:28:50.170Z,100175.81
2022-07-29T12:31:43.538Z,100178.56
2022-07-29T12:34:06.491Z,100165.28
2022-07-29T12:36:34.596Z,100164.47
2022-07-29T12:39:02.933Z,100163.50
2022-07-29T12:41:31.730Z,100155.03
2022-07-29T12:44:00.279Z,100158.03
2022-07-29T12:46:28.327Z,100154.91
2022-07-29T12:48:57.589Z,100151.75
2022-07-29T12:51:33.747Z,100160.50
2022-07-29T12:54:14.510Z,100150.19
2022-07-29T12:56:45.720Z,100152.50
2022-07-29T12:59:20.149Z,100157.03
2022-07-29T13:01:51.098Z,100163.38
2022-07-29T13:04:33.902Z,100158.94
2022-07-29T13:07:09.259Z,100146.63
2022-07-29T13:09:42.051Z,100158.94
2022-07-29T13:12:12.867Z,100160.63
2022-07-29T13:14:47.040Z,100151.41
2022-07-29T13:17:21.697Z,100152.88
2022-07-29T13:19:53.724Z,100156.09
2022-07-29T13:22:25.517Z,100149.56
2022-07-29T13:24:56.908Z,100160.63
2022-07-29T13:27:29.432Z,100154.31
2022-07-29T13:29:59.169Z,100154.13
2022-07-29T13:32:29.766Z,100160.72
2022-07-29T13:35:00.411Z,100144.00
2022-07-29T13:37:30.637Z,100149.09
2022-07-29T13:40:00.070Z,100150.81
2022-07-29T13:42:28.277Z,100152.38
2022-07-29T13:44:56.121Z,100160.03
2022-07-29T13:47:32.426Z,100157.75
2022-07-29T13:50:02.719Z,100156.69
2022-07-29T13:52:31.387Z,100158.00
2022-07-29T13:54:59.238Z,100153.56
2022-07-29T13:57:27.265Z,100155.94
2022-07-29T13:59:55.281Z,100146.22
2022-07-29T14:02:25.248Z,100147.47
2022-07-29T14:04:54.883Z,100148.28
2022-07-29T14:07:23.860Z,100146.22
2022-07-29T14:09:52.183Z,100146.69
2022-07-29T14:12:20.481Z,100137.56
2022-07-29T14:14:48.229Z,100151.13
2022-07-29T14:17:16.898Z,100143.91
2022-07-29T14:19:44.690Z,100148.13
2022-07-29T14:22:12.487Z,100144.47
2022-07-29T14:24:41.024Z,100154.63
2022-07-29T14:27:09.326Z,100144.22
2022-07-29T14:29:38.805Z,100138.66
2022-07-29T14:32:11.333Z,100142.25
2022-07-29T14:34:40.547Z,100142.19
2022-07-29T14:37:09.364Z,100139.63
2022-07-29T14:39:42.864Z,100150.81
2022-07-29T14:42:12.813Z,100139.78
2022-07-29T14:44:44.651Z,100145.50
2022-07-29T14:47:12.577Z,100147.81
2022-07-29T14:49:40.609Z,100145.44
2022-07-29T14:52:08.403Z,100142.06
2022-07-29T14:54:36.177Z,100157.50
2022-07-29T14:57:03.928Z,100152.84
2022-07-29T14:59:31.711Z,100145.19
2022-07-29T15:02:00.068Z,100145.41
2022-07-29T15:04:28.184Z,100140.97
2022-07-29T15:06:56.184Z,100145.19
2022-07-29T15:09:24.157Z,100145.00
2022-07-29T15:11:52.291Z,100154.97
2022-07-29T15:14:20.007Z,100149.06
2022-07-29T15:16:48.338Z,100150.56
2022-07-29T15:19:16.545Z,100149.94
2022-07-29T15:21:48.402Z,100146.38
2022-07-29T15:24:17.943Z,100138.56
2022-07-29T15:26:46.842Z,100145.59
2022-07-29T15:29:15.669Z,100142.84
2022-07-29T15:31:44.450Z,100144.53
2022-07-29T15:34:12.384Z,100144.72
2022-07-29T15:36:55.776Z,100144.53
2022-07-29T15:39:23.818Z,100141.78
2022-07-29T15:41:52.112Z,100142.03
2022-07-29T15:44:21.328Z,100143.50
2022-07-29T15:47:06.147Z,100143.31
2022-07-29T15:49:48.336Z,100141.59
2022-07-29T15:52:26.181Z,100145.84
2022-07-29T15:54:56.375Z,100138.25
2022-07-29T15:57:25.010Z,100140.63
2022-07-29T15:59:53.154Z,100150.13
2022-07-29T16:02:21.209Z,100143.31
2022-07-29T16:04:49.090Z,100139.66
2022-07-29T16:07:17.234Z,100140.09
2022-07-29T16:09:50.832Z,100140.28
2022-07-29T16:12:20.911Z,100142.16
2022-07-29T16:14:50.995Z,100133.81
2022-07-29T16:17:19.493Z,100133.78
2022-07-29T16:19:47.450Z,100126.56
2022-07-29T16:22:15.423Z,100131.16
2022-07-29T16:24:43.334Z,100120.72
2022-07-29T16:27:11.205Z,100125.97
2022-07-29T16:29:39.582Z,100125.34
2022-07-29T16:32:07.484Z,100128.47
2022-07-29T16:34:35.288Z,100124.03
2022-07-29T16:37:03.681Z,100121.47
2022-07-29T16:39:31.785Z,100110.41
2022-07-29T16:42:01.548Z,100110.16
2022-07-29T16:44:31.018Z,100108.66
2022-07-29T16:47:00.453Z,100115.63
2022-07-29T16:49:29.115Z,100122.56
2022-07-29T16:51:57.078Z,100121.25
2022-07-29T16:54:25.077Z,100117.66
2022-07-29T16:56:53.263Z,100104.28
2022-07-29T16:59:21.313Z,100116.41
2022-07-29T17:01:49.725Z,100111.75
2022-07-29T17:04:17.646Z,100101.78
2022-07-29T17:06:45.591Z,100104.34
2022-07-29T17:09:16.965Z,100096.97
2022-07-29T17:11:53.654Z,100116.22
2022-07-29T17:14:27.144Z,100109.84
2022-07-29T17:17:01.226Z,100113.44
2022-07-29T17:19:35.422Z,100107.97
2022-07-29T17:22:13.032Z,100111.56
2022-07-29T17:24:47.933Z,100107.09
2022-07-29T17:27:16.409Z,100115.34
2022-07-29T17:29:46.618Z,100110.50
2022-07-29T17:32:14.513Z,100119.16
2022-07-29T17:34:43.152Z,100108.16
2022-07-29T17:37:12.473Z,100114.69
2022-07-29T17:39:42.276Z,100115.09
2022-07-29T17:42:13.603Z,100108.28
2022-07-29T17:44:41.940Z,100123.44
2022-07-29T17:47:15.871Z,100113.50
2022-07-29T17:49:47.827Z,100113.44
2022-07-29T17:52:17.928Z,100115.53
2022-07-29T17:54:45.767Z,100115.00
2022-07-29T17:57:13.908Z,100127.91
2022-07-29T17:59:41.634Z,100124.03
2022-07-29T18:02:09.968Z,100130.13
2022-07-29T18:04:37.763Z,100135.56
2022-07-29T18:07:05.740Z,100116.63
2022-07-29T18:09:33.462Z,100130.75
2022-07-29T18:12:01.296Z,100135.94
2022-07-29T18:14:29.190Z,100139.47
2022-07-29T18:16:57.175Z,100141.28
2022-07-29T18:19:25.269Z,100139.28
2022-07-29T18:21:54.415Z,100137.69
2022-07-29T18:24:27.580Z,100139.13
2022-07-29T18:26:56.386Z,100143.47
2022-07-29T18:29:24.570Z,100148.38
2022-07-29T18:31:52.386Z,100150.19
2022-07-29T18:34:20.236Z,100146.47
2022-07-29T18:36:48.027Z,100151.88
2022-07-29T18:39:20.689Z,100158.97
2022-07-29T18:41:51.383Z,100158.19
2022-07-29T18:44:21.810Z,100155.53
2022-07-29T18:46:52.217Z,100154.59
2022-07-29T18:49:20.477Z,100150.84
2022-07-29T18:51:49.824Z,100165.59
2022-07-29T18:54:17.975Z,100172.66
2022-07-29T18:56:47.087Z,100159.88
2022-07-29T18:59:17.063Z,100175.00
2022-07-29T19:01:45.752Z,100175.72
2022-07-29T19:04:13.680Z,100179.00
2022-07-29T19:06:41.732Z,100174.47
2022-07-29T19:09:10.302Z,100173.13
2022-07-29T19:11:39.007Z,100178.09
2022-07-29T19:14:07.366Z,100176.91
2022-07-29T19:16:35.398Z,100185.88
2022-07-29T19:19:03.840Z,100191.69
2022-07-29T19:21:32.189Z,100182.69
2022-07-29T19:24:06.718Z,100195.53
2022-07-29T19:26:38.570Z,100194.34
2022-07-29T19:29:06.352Z,100198.66
2022-07-29T19:31:34.351Z,100196.31
2022-07-29T19:34:02.279Z,100201.28
2022-07-29T19:36:31.299Z,100212.78
2022-07-29T19:39:00.452Z,100203.56
2022-07-29T19:41:28.493Z,100204.09
2022-07-29T19:43:57.116Z,100205.78
2022-07-29T19:46:28.675Z,100201.22
2022-07-29T19:48:57.239Z,100219.69
2022-07-29T19:51:25.506Z,100216.81
2022-07-29T19:53:53.533Z,100221.09
2022-07-29T19:56:21.741Z,100226.59
2022-07-29T19:58:52.537Z,100230.88
2022-07-29T20:01:20.790Z,100224.72
2022-07-29T20:03:48.905Z,100225.22
2022-07-29T20:06:16.955Z,100233.09
2022-07-29T20:08:45.422Z,100224.91
2022-07-29T20:11:13.355Z,100225.94
2022-07-29T20:13:41.421Z,100233.63
2022-07-29T20:16:09.386Z,100224.06
2022-07-29T20:18:37.543Z,100245.41
2022-07-29T20:21:05.515Z,100251.22
2022-07-29T20:23:33.782Z,100247.28
2022-07-29T20:26:06.110Z,100250.22
2022-07-29T20:28:37.227Z,100250.53
2022-07-29T20:31:05.129Z,100257.91
2022-07-29T20:33:33.040Z,100257.38
2022-07-29T20:36:00.892Z,100266.47
2022-07-29T20:38:30.548Z,100269.34
2022-07-29T20:40:58.875Z,100261.16
2022-07-29T20:43:27.232Z,100264.72
2022-07-29T20:45:55.206Z,100258.59
2022-07-29T20:48:23.196Z,100250.72
2022-07-29T20:50:51.497Z,100266.97
2022-07-29T20:53:20.410Z,100255.84
2022-07-29T20:55:48.322Z,100248.47
2022-07-29T20:58:16.171Z,100253.94
2022-07-29T21:00:44.055Z,100253.44
2022-07-29T21:03:11.981Z,100243.50
2022-07-29T21:05:43.203Z,100268.78
2022-07-29T21:08:12.161Z,100256.78
2022-07-29T21:10:39.928Z,100266.19
2022-07-29T21:13:07.804Z,100267.72
2022-07-29T21:15:36.018Z,100263.06
2022-07-29T21:18:05.979Z,100268.19
2022-07-29T21:20:33.853Z,100273.63
2022-07-29T21:23:01.851Z,100277.34
2022-07-29T21:25:29.664Z,100273.56
2022-07-29T21:28:16.074Z,100278.78
2022-07-29T21:30:44.032Z,100278.91
2022-07-29T21:33:11.832Z,100295.78
2022-07-29T21:36:10.579Z,100295.59
2022-07-29T21:38:28.274Z,100298.56
2022-07-29T21:40:57.579Z,100309.97
2022-07-29T21:43:26.684Z,100327.47
2022-07-29T21:45:56.065Z,100326.25
2022-07-29T21:48:26.657Z,100326.84
2022-07-29T21:50:54.679Z,100332.41
2022-07-29T21:53:22.952Z,100329.59
2022-07-29T21:55:54.276Z,100340.44
2022-07-29T21:58:23.697Z,100346.84
2022-07-29T22:00:52.772Z,100360.78
2022-07-29T22:03:20.599Z,100359.69
2022-07-29T22:05:48.355Z,100366.28
2022-07-29T22:08:16.303Z,100372.94
2022-07-29T22:10:44.268Z,100374.66
2022-07-29T22:13:12.080Z,100371.53
2022-07-29T22:15:45.369Z,100360.09
2022-07-29T22:18:20.577Z,100367.69
2022-07-29T22:20:51.751Z,100366.72
2022-07-29T22:23:19.890Z,100371.03
2022-07-29T22:25:47.770Z,100364.91
2022-07-29T22:28:15.486Z,100376.66
2022-07-29T22:30:43.276Z,100380.41
2022-07-29T22:33:18.094Z,100386.13
2022-07-29T22:35:48.819Z,100390.56
2022-07-29T22:38:19.850Z,100383.19
2022-07-29T22:40:48.583Z,100391.47
2022-07-29T22:43:16.871Z,100391.34
2022-07-29T22:45:44.648Z,100392.50
2022-07-29T22:48:12.458Z,100395.06
2022-07-29T22:50:40.368Z,100396.63
2022-07-29T22:53:08.146Z,100403.09
2022-07-29T22:55:35.901Z,100401.97
2022-07-29T22:58:03.677Z,100413.31
2022-07-29T23:00:31.591Z,100412.22
2022-07-29T23:02:59.524Z,100415.22
2022-07-29T23:05:27.423Z,100413.97
2022-07-29T23:07:55.622Z,100418.25
2022-07-29T23:10:23.489Z,100431.59
2022-07-29T23:12:51.186Z,100428.63
2022-07-29T23:15:19.715Z,100429.22
2022-07-29T23:17:47.867Z,100428.06
2022-07-29T23:20:15.776Z,100429.22
2022-07-29T23:22:43.654Z,100420.91
2022-07-29T23:25:11.757Z,100426.69
2022-07-29T23:27:40.011Z,100428.97
2022-07-29T23:30:09.179Z,100430.09
2022-07-29T23:32:37.162Z,100428.97
2022-07-29T23:35:06.942Z,100427.25
2022-07-29T23:37:35.124Z,100433.53
2022-07-29T23:40:04.431Z,100436.69
2022-07-29T23:42:32.370Z,100439.53
2022-07-29T23:45:00.458Z,100443.53
2022-07-29T23:47:29.009Z,100442.97
2022-07-29T23:49:57.080Z,100444.09
2022-07-29T23:52:24.813Z,100443.53
2022-07-29T23:54:52.752Z,100438.41
2022-07-29T23:57:24.410Z,100432.09
2022-07-29T23:59:52.946Z,100433.38
